sensor_id;sensor_type;location;lat;lon;timestamp;pressure;altitude;pressure_sealevel;temperature;humidity
65227;BME280;51805;49.012;12.104;2023-04-09T00:00:12;98496.09;;;22.22;46.43
65227;BME280;51805;49.012;12.104;2023-04-09T00:02:37;98489.56;;;22.18;46.55
65227;BME280;51805;49.012;12.104;2023-04-09T00:05:03;98494.97;;;22.18;46.44
65227;BME280;51805;49.012;12.104;2023-04-09T00:07:29;98502.03;;;22.19;46.42
65227;BME280;51805;49.012;12.104;2023-04-09T00:09:54;98490.63;;;22.12;46.41
65227;BME280;51805;49.012;12.104;2023-04-09T00:12:19;98505.78;;;22.18;46.36
65227;BME280;51805;49.012;12.104;2023-04-09T00:14:45;98493.63;;;22.16;46.44
65227;BME280;51805;49.012;12.104;2023-04-09T00:17:10;98498.72;;;22.12;46.54
65227;BME280;51805;49.012;12.104;2023-04-09T00:19:35;98494.41;;;22.11;46.67
65227;BME280;51805;49.012;12.104;2023-04-09T00:22:00;98497.66;;;22.13;46.60
65227;BME280;51805;49.012;12.104;2023-04-09T00:24:26;98478.63;;;21.98;46.48
65227;BME280;51805;49.012;12.104;2023-04-09T00:26:51;98499.00;;;22.11;46.48
65227;BME280;51805;49.012;12.104;2023-04-09T00:29:16;98501.16;;;22.09;46.50
65227;BME280;51805;49.012;12.104;2023-04-09T00:31:41;98504.94;;;22.08;46.55
65227;BME280;51805;49.012;12.104;2023-04-09T00:34:07;98507.09;;;22.06;46.79
65227;BME280;51805;49.012;12.104;2023-04-09T00:36:32;98504.13;;;22.07;46.77
65227;BME280;51805;49.012;12.104;2023-04-09T00:38:57;98498.44;;;22.04;46.61
65227;BME280;51805;49.012;12.104;2023-04-09T00:41:23;98499.22;;;22.04;46.74
65227;BME280;51805;49.012;12.104;2023-04-09T00:43:48;98494.91;;;22.03;46.84
65227;BME280;51805;49.012;12.104;2023-04-09T00:46:13;98499.78;;;22.06;46.60
65227;BME280;51805;49.012;12.104;2023-04-09T00:48:39;98488.41;;;21.99;46.86
65227;BME280;51805;49.012;12.104;2023-04-09T00:51:04;98490.53;;;21.97;46.75
65227;BME280;51805;49.012;12.104;2023-04-09T00:53:29;98487.84;;;21.97;46.97
65227;BME280;51805;49.012;12.104;2023-04-09T00:55:55;98490.28;;;21.99;46.65
65227;BME280;51805;49.012;12.104;2023-04-09T00:58:20;98479.72;;;21.97;46.73
65227;BME280;51805;49.012;12.104;2023-04-09T01:00:46;98473.75;;;21.95;46.90
65227;BME280;51805;49.012;12.104;2023-04-09T01:03:11;98474.00;;;21.94;46.99
65227;BME280;51805;49.012;12.104;2023-04-09T01:05:45;98488.38;;;21.94;46.88
65227;BME280;51805;49.012;12.104;2023-04-09T01:08:25;98499.19;;;21.94;46.90
65227;BME280;51805;49.012;12.104;2023-04-09T01:11:04;98500.81;;;21.95;46.98
65227;BME280;51805;49.012;12.104;2023-04-09T01:13:58;98505.13;;;21.91;46.78
65227;BME280;51805;49.012;12.104;2023-04-09T01:16:20;98477.47;;;21.84;46.90
65227;BME280;51805;49.012;12.104;2023-04-09T01:18:56;98499.72;;;21.91;47.02
65227;BME280;51805;49.012;12.104;2023-04-09T01:21:25;98495.91;;;21.92;46.95
65227;BME280;51805;49.012;12.104;2023-04-09T01:27:01;98490.47;;;21.87;46.93
65227;BME280;51805;49.012;12.104;2023-04-09T01:29:30;98489.13;;;21.85;46.95
65227;BME280;51805;49.012;12.104;2023-04-09T01:31:57;98491.00;;;21.84;46.98
65227;BME280;51805;49.012;12.104;2023-04-09T01:34:24;98494.28;;;21.86;46.96
65227;BME280;51805;49.012;12.104;2023-04-09T01:36:55;98487.50;;;21.84;47.10
65227;BME280;51805;49.012;12.104;2023-04-09T01:39:21;98485.59;;;21.84;46.87
65227;BME280;51805;49.012;12.104;2023-04-09T01:41:48;98486.69;;;21.83;47.20
65227;BME280;51805;49.012;12.104;2023-04-09T01:44:15;98488.28;;;21.84;47.08
65227;BME280;51805;49.012;12.104;2023-04-09T01:46:41;98490.16;;;21.79;47.14
65227;BME280;51805;49.012;12.104;2023-04-09T01:49:06;98483.94;;;21.78;47.22
65227;BME280;51805;49.012;12.104;2023-04-09T01:51:33;98482.31;;;21.77;47.07
65227;BME280;51805;49.012;12.104;2023-04-09T01:53:59;98480.66;;;21.76;47.19
65227;BME280;51805;49.012;12.104;2023-04-09T01:56:24;98491.47;;;21.76;47.13
65227;BME280;51805;49.012;12.104;2023-04-09T01:58:50;98494.44;;;21.75;47.14
65227;BME280;51805;49.012;12.104;2023-04-09T02:01:23;98493.13;;;21.77;47.15
65227;BME280;51805;49.012;12.104;2023-04-09T02:03:53;98492.81;;;21.74;47.13
65227;BME280;51805;49.012;12.104;2023-04-09T02:06:22;98501.19;;;21.72;47.23
65227;BME280;51805;49.012;12.104;2023-04-09T02:08:51;98498.47;;;21.72;47.25
65227;BME280;51805;49.012;12.104;2023-04-09T02:11:17;98503.59;;;21.69;47.18
65227;BME280;51805;49.012;12.104;2023-04-09T02:13:45;98507.94;;;21.70;47.00
65227;BME280;51805;49.012;12.104;2023-04-09T02:16:14;98505.50;;;21.68;47.23
65227;BME280;51805;49.012;12.104;2023-04-09T02:18:39;98513.03;;;21.66;47.32
65227;BME280;51805;49.012;12.104;2023-04-09T02:21:06;98498.38;;;21.57;47.21
65227;BME280;51805;49.012;12.104;2023-04-09T02:23:31;98512.53;;;21.69;47.21
65227;BME280;51805;49.012;12.104;2023-04-09T02:25:56;98513.88;;;21.67;47.30
65227;BME280;51805;49.012;12.104;2023-04-09T02:28:21;98511.44;;;21.65;47.38
65227;BME280;51805;49.012;12.104;2023-04-09T02:30:47;98515.50;;;21.68;47.37
65227;BME280;51805;49.012;12.104;2023-04-09T02:33:12;98513.88;;;21.67;47.17
65227;BME280;51805;49.012;12.104;2023-04-09T02:35:37;98513.88;;;21.67;47.18
65227;BME280;51805;49.012;12.104;2023-04-09T02:38:03;98511.13;;;21.62;47.41
65227;BME280;51805;49.012;12.104;2023-04-09T02:40:28;98517.38;;;21.67;47.17
65227;BME280;51805;49.012;12.104;2023-04-09T02:42:53;98512.47;;;21.59;47.49
65227;BME280;51805;49.012;12.104;2023-04-09T02:45:19;98513.25;;;21.60;47.41
65227;BME280;51805;49.012;12.104;2023-04-09T02:47:44;98518.97;;;21.63;47.19
65227;BME280;51805;49.012;12.104;2023-04-09T02:50:09;98517.34;;;21.62;47.13
65227;BME280;51805;49.012;12.104;2023-04-09T02:52:35;98521.13;;;21.61;47.25
65227;BME280;51805;49.012;12.104;2023-04-09T02:55:00;98519.50;;;21.60;47.22
65227;BME280;51805;49.012;12.104;2023-04-09T02:57:25;98514.59;;;21.57;47.19
65227;BME280;51805;49.012;12.104;2023-04-09T02:59:51;98511.91;;;21.57;47.36
65227;BME280;51805;49.012;12.104;2023-04-09T03:02:16;98511.38;;;21.60;47.28
65227;BME280;51805;49.012;12.104;2023-04-09T03:04:42;98513.00;;;21.61;47.40
65227;BME280;51805;49.012;12.104;2023-04-09T03:07:07;98513.53;;;21.58;47.29
65227;BME280;51805;49.012;12.104;2023-04-09T03:09:32;98515.44;;;21.58;47.13
65227;BME280;51805;49.012;12.104;2023-04-09T03:11:57;98507.53;;;21.56;47.30
65227;BME280;51805;49.012;12.104;2023-04-09T03:14:23;98505.94;;;21.55;47.30
65227;BME280;51805;49.012;12.104;2023-04-09T03:16:48;98509.19;;;21.57;47.27
65227;BME280;51805;49.012;12.104;2023-04-09T03:19:14;98511.34;;;21.55;47.32
65227;BME280;51805;49.012;12.104;2023-04-09T03:21:39;98511.34;;;21.55;47.12
65227;BME280;51805;49.012;12.104;2023-04-09T03:24:05;98501.03;;;21.52;47.23
65227;BME280;51805;49.012;12.104;2023-04-09T03:26:30;98497.25;;;21.48;47.32
65227;BME280;51805;49.012;12.104;2023-04-09T03:28:56;98503.19;;;21.50;47.35
65227;BME280;51805;49.012;12.104;2023-04-09T03:31:21;98501.03;;;21.52;47.38
65227;BME280;51805;49.012;12.104;2023-04-09T03:33:46;98502.66;;;21.53;47.28
65227;BME280;51805;49.012;12.104;2023-04-09T03:36:12;98499.94;;;21.48;47.38
65227;BME280;51805;49.012;12.104;2023-04-09T03:38:37;98507.53;;;21.51;47.27
65227;BME280;51805;49.012;12.104;2023-04-09T03:41:02;98505.34;;;21.48;47.44
65227;BME280;51805;49.012;12.104;2023-04-09T03:43:27;98504.53;;;21.48;47.40
65227;BME280;51805;49.012;12.104;2023-04-09T03:45:53;98499.94;;;21.48;47.41
65227;BME280;51805;49.012;12.104;2023-04-09T03:48:18;98499.13;;;21.48;47.46
65227;BME280;51805;49.012;12.104;2023-04-09T03:50:43;98498.28;;;21.47;47.38
65227;BME280;51805;49.012;12.104;2023-04-09T03:53:09;98498.28;;;21.47;47.38
65227;BME280;51805;49.012;12.104;2023-04-09T03:55:34;98496.16;;;21.49;47.40
65227;BME280;51805;49.012;12.104;2023-04-09T03:57:59;98498.28;;;21.47;47.45
65227;BME280;51805;49.012;12.104;2023-04-09T04:00:24;98492.88;;;21.47;47.54
65227;BME280;51805;49.012;12.104;2023-04-09T04:02:50;98493.41;;;21.44;47.26
65227;BME280;51805;49.012;12.104;2023-04-09T04:05:16;98483.63;;;21.38;47.15
65227;BME280;51805;49.012;12.104;2023-04-09T04:07:41;98498.28;;;21.42;47.53
65227;BME280;51805;49.012;12.104;2023-04-09T04:10:07;98498.78;;;21.39;47.49
65227;BME280;51805;49.012;12.104;2023-04-09T04:12:32;98499.34;;;21.41;47.34
65227;BME280;51805;49.012;12.104;2023-04-09T04:14:57;98508.53;;;21.40;47.53
65227;BME280;51805;49.012;12.104;2023-04-09T04:17:23;98507.44;;;21.41;47.37
65227;BME280;51805;49.012;12.104;2023-04-09T04:19:48;98512.06;;;21.40;47.41
65227;BME280;51805;49.012;12.104;2023-04-09T04:22:13;98511.22;;;21.40;47.40
65227;BME280;51805;49.012;12.104;2023-04-09T04:24:39;98518.50;;;21.39;47.56
65227;BME280;51805;49.012;12.104;2023-04-09T04:27:04;98528.53;;;21.39;47.50
65227;BME280;51805;49.012;12.104;2023-04-09T04:29:29;98516.63;;;21.40;47.46
65227;BME280;51805;49.012;12.104;2023-04-09T04:31:54;98524.75;;;21.40;47.55
65227;BME280;51805;49.012;12.104;2023-04-09T04:34:20;98524.75;;;21.40;47.39
65227;BME280;51805;49.012;12.104;2023-04-09T04:36:45;98534.47;;;21.41;47.41
65227;BME280;51805;49.012;12.104;2023-04-09T04:39:10;98536.13;;;21.42;47.47
65227;BME280;51805;49.012;12.104;2023-04-09T04:41:36;98538.84;;;21.42;47.32
65227;BME280;51805;49.012;12.104;2023-04-09T04:44:01;98532.59;;;21.41;47.36
65227;BME280;51805;49.012;12.104;2023-04-09T04:46:26;98539.88;;;21.41;47.54
65227;BME280;51805;49.012;12.104;2023-04-09T04:48:51;98534.22;;;21.42;47.45
65227;BME280;51805;49.012;12.104;2023-04-09T04:51:17;98536.41;;;21.45;47.49
65227;BME280;51805;49.012;12.104;2023-04-09T04:53:42;98537.22;;;21.46;47.36
65227;BME280;51805;49.012;12.104;2023-04-09T04:56:12;98529.63;;;21.43;47.37
65227;BME280;51805;49.012;12.104;2023-04-09T04:58:37;98526.97;;;21.48;47.21
65227;BME280;51805;49.012;12.104;2023-04-09T05:01:03;98537.81;;;21.48;47.24
65227;BME280;51805;49.012;12.104;2023-04-09T05:03:28;98541.31;;;21.48;47.30
65227;BME280;51805;49.012;12.104;2023-04-09T05:05:53;98527.78;;;21.48;47.45
65227;BME280;51805;49.012;12.104;2023-04-09T05:08:18;98542.69;;;21.51;47.44
65227;BME280;51805;49.012;12.104;2023-04-09T05:10:44;98538.91;;;21.52;47.28
65227;BME280;51805;49.012;12.104;2023-04-09T05:13:09;98534.31;;;21.53;47.10
65227;BME280;51805;49.012;12.104;2023-04-09T05:15:39;98532.16;;;21.55;47.10
65227;BME280;51805;49.012;12.104;2023-04-09T05:18:05;98525.44;;;21.57;47.18
65227;BME280;51805;49.012;12.104;2023-04-09T05:20:31;98510.78;;;21.53;47.28
65227;BME280;51805;49.012;12.104;2023-04-09T05:22:56;98501.56;;;21.49;47.26
65227;BME280;51805;49.012;12.104;2023-04-09T05:25:21;98512.16;;;21.56;47.02
65227;BME280;51805;49.012;12.104;2023-04-09T05:27:47;98525.47;;;21.67;47.21
65227;BME280;51805;49.012;12.104;2023-04-09T05:30:12;98518.72;;;21.65;46.76
65227;BME280;51805;49.012;12.104;2023-04-09T05:32:37;98521.72;;;21.73;46.83
65227;BME280;51805;49.012;12.104;2023-04-09T05:35:03;98527.75;;;21.75;46.88
65227;BME280;51805;49.012;12.104;2023-04-09T05:37:29;98526.16;;;21.79;46.75
65227;BME280;51805;49.012;12.104;2023-04-09T05:39:55;98527.22;;;21.78;46.55
65227;BME280;51805;49.012;12.104;2023-04-09T05:42:20;98532.94;;;21.82;46.55
65227;BME280;51805;49.012;12.104;2023-04-09T05:44:45;98535.34;;;21.78;46.58
65227;BME280;51805;49.012;12.104;2023-04-09T05:47:10;98538.09;;;21.83;46.48
65227;BME280;51805;49.012;12.104;2023-04-09T05:49:36;98545.13;;;21.84;46.62
65227;BME280;51805;49.012;12.104;2023-04-09T05:52:01;98539.97;;;21.83;46.46
65227;BME280;51805;49.012;12.104;2023-04-09T05:54:26;98560.03;;;21.92;46.46
65227;BME280;51805;49.012;12.104;2023-04-09T05:56:52;98556.53;;;21.91;46.72
65227;BME280;51805;49.012;12.104;2023-04-09T05:59:17;98560.88;;;21.92;46.38
65227;BME280;51805;49.012;12.104;2023-04-09T06:01:42;98558.16;;;21.92;46.75
65227;BME280;51805;49.012;12.104;2023-04-09T06:04:07;98565.19;;;21.93;46.27
65227;BME280;51805;49.012;12.104;2023-04-09T06:06:33;98561.69;;;21.93;46.57
65227;BME280;51805;49.012;12.104;2023-04-09T06:08:58;98556.56;;;21.96;46.36
65227;BME280;51805;49.012;12.104;2023-04-09T06:11:24;98523.72;;;21.83;46.27
65227;BME280;51805;49.012;12.104;2023-04-09T06:13:50;98555.25;;;21.99;46.31
65227;BME280;51805;49.012;12.104;2023-04-09T06:16:15;98550.66;;;21.99;46.38
65227;BME280;51805;49.012;12.104;2023-04-09T06:18:40;98561.78;;;22.08;46.21
65227;BME280;51805;49.012;12.104;2023-04-09T06:21:07;98569.09;;;22.07;46.44
65227;BME280;51805;49.012;12.104;2023-04-09T06:23:35;98569.38;;;22.11;46.05
65227;BME280;51805;49.012;12.104;2023-04-09T06:26:01;98562.09;;;22.11;46.06
65227;BME280;51805;49.012;12.104;2023-04-09T06:28:30;98568.06;;;22.18;46.09
65227;BME280;51805;49.012;12.104;2023-04-09T06:30:57;98567.25;;;22.18;45.91
65227;BME280;51805;49.012;12.104;2023-04-09T06:33:22;98562.63;;;22.13;46.02
65227;BME280;51805;49.012;12.104;2023-04-09T06:35:48;98572.44;;;22.19;46.03
65227;BME280;51805;49.012;12.104;2023-04-09T06:38:14;98575.38;;;22.18;46.12
65227;BME280;51805;49.012;12.104;2023-04-09T06:40:40;98575.66;;;22.21;45.97
65227;BME280;51805;49.012;12.104;2023-04-09T06:43:05;98578.38;;;22.21;45.90
65227;BME280;51805;49.012;12.104;2023-04-09T06:45:31;98575.94;;;22.20;45.93
65227;BME280;51805;49.012;12.104;2023-04-09T06:47:56;98585.97;;;22.24;45.93
65227;BME280;51805;49.012;12.104;2023-04-09T06:50:21;98566.97;;;22.14;46.06
65227;BME280;51805;49.012;12.104;2023-04-09T06:52:46;98583.53;;;22.23;45.93
65227;BME280;51805;49.012;12.104;2023-04-09T06:55:12;98585.97;;;22.24;45.88
65227;BME280;51805;49.012;12.104;2023-04-09T06:57:37;98584.66;;;22.27;45.96
65227;BME280;51805;49.012;12.104;2023-04-09T07:00:03;98586.53;;;22.26;46.10
65227;BME280;51805;49.012;12.104;2023-04-09T07:02:28;98582.19;;;22.25;45.94
65227;BME280;51805;49.012;12.104;2023-04-09T07:04:53;98581.66;;;22.23;45.97
65227;BME280;51805;49.012;12.104;2023-04-09T07:07:19;98564.25;;;22.14;45.85
65227;BME280;51805;49.012;12.104;2023-04-09T07:09:44;98598.22;;;22.37;45.78
65227;BME280;51805;49.012;12.104;2023-04-09T07:12:09;98587.66;;;22.35;45.62
65227;BME280;51805;49.012;12.104;2023-04-09T07:14:34;98593.63;;;22.37;45.87
65227;BME280;51805;49.012;12.104;2023-04-09T07:17:00;98590.94;;;22.37;45.92
65227;BME280;51805;49.012;12.104;2023-04-09T07:19:25;98589.00;;;22.33;45.85
65227;BME280;51805;49.012;12.104;2023-04-09T07:21:50;98592.03;;;22.41;45.53
65227;BME280;51805;49.012;12.104;2023-04-09T07:24:15;98587.66;;;22.35;45.81
65227;BME280;51805;49.012;12.104;2023-04-09T07:26:41;98586.84;;;22.30;45.80
65227;BME280;51805;49.012;12.104;2023-04-09T07:29:06;98593.91;;;22.36;45.76
65227;BME280;51805;49.012;12.104;2023-04-09T07:31:31;98597.41;;;22.36;45.66
65227;BME280;51805;49.012;12.104;2023-04-09T07:33:57;98591.47;;;22.34;45.86
65227;BME280;51805;49.012;12.104;2023-04-09T07:36:22;98596.91;;;22.44;45.85
65227;BME280;51805;49.012;12.104;2023-04-09T07:38:47;98602.94;;;22.51;45.58
65227;BME280;51805;49.012;12.104;2023-04-09T07:41:12;98597.47;;;22.46;45.65
65227;BME280;51805;49.012;12.104;2023-04-09T07:43:38;98598.03;;;22.48;45.76
65227;BME280;51805;49.012;12.104;2023-04-09T07:46:03;98588.25;;;22.47;45.67
65227;BME280;51805;49.012;12.104;2023-04-09T07:48:28;98593.16;;;22.50;45.75
65227;BME280;51805;49.012;12.104;2023-04-09T07:50:54;98585.56;;;22.47;45.61
65227;BME280;51805;49.012;12.104;2023-04-09T07:53:19;98594.22;;;22.49;45.42
65227;BME280;51805;49.012;12.104;2023-04-09T07:55:44;98592.69;;;22.58;45.87
65227;BME280;51805;49.012;12.104;2023-04-09T07:58:09;98579.41;;;22.57;45.54
65227;BME280;51805;49.012;12.104;2023-04-09T08:00:35;98582.13;;;22.62;45.59
65227;BME280;51805;49.012;12.104;2023-04-09T08:03:00;98575.91;;;22.61;45.70
65227;BME280;51805;49.012;12.104;2023-04-09T08:05:25;98584.06;;;22.66;45.39
65227;BME280;51805;49.012;12.104;2023-04-09T08:07:50;98590.00;;;22.63;45.56
65227;BME280;51805;49.012;12.104;2023-04-09T08:10:16;98583.75;;;22.63;45.57
65227;BME280;51805;49.012;12.104;2023-04-09T08:12:42;98588.66;;;22.66;45.73
65227;BME280;51805;49.012;12.104;2023-04-09T08:15:08;98591.91;;;22.68;45.69
65227;BME280;51805;49.012;12.104;2023-04-09T08:17:33;98592.75;;;22.68;45.73
65227;BME280;51805;49.012;12.104;2023-04-09T08:19:58;98565.59;;;22.58;45.70
65227;BME280;51805;49.012;12.104;2023-04-09T08:22:24;98590.81;;;22.69;45.67
65227;BME280;51805;49.012;12.104;2023-04-09T08:24:52;98591.66;;;22.69;45.82
65227;BME280;51805;49.012;12.104;2023-04-09T08:27:18;98598.16;;;22.73;45.98
65227;BME280;51805;49.012;12.104;2023-04-09T08:29:43;98584.88;;;22.67;46.06
65227;BME280;51805;49.012;12.104;2023-04-09T08:32:08;98591.66;;;22.69;45.86
65227;BME280;51805;49.012;12.104;2023-04-09T08:34:34;98593.25;;;22.70;45.90
65227;BME280;51805;49.012;12.104;2023-04-09T08:36:59;98583.81;;;22.73;45.87
65227;BME280;51805;49.012;12.104;2023-04-09T08:39:24;98578.06;;;22.64;45.94
65227;BME280;51805;49.012;12.104;2023-04-09T08:41:50;98590.06;;;22.78;45.89
65227;BME280;51805;49.012;12.104;2023-04-09T08:44:17;98590.03;;;22.73;45.72
65227;BME280;51805;49.012;12.104;2023-04-09T08:46:43;98600.88;;;22.78;45.81
65227;BME280;51805;49.012;12.104;2023-04-09T08:49:08;98585.66;;;22.67;45.94
65227;BME280;51805;49.012;12.104;2023-04-09T08:51:33;98579.72;;;22.70;45.78
65227;BME280;51805;49.012;12.104;2023-04-09T08:54:00;98611.72;;;22.78;45.99
65227;BME280;51805;49.012;12.104;2023-04-09T08:56:26;98592.19;;;22.76;45.87
65227;BME280;51805;49.012;12.104;2023-04-09T08:58:53;98586.78;;;22.76;45.97
65227;BME280;51805;49.012;12.104;2023-04-09T09:01:19;98596.03;;;22.80;45.80
65227;BME280;51805;49.012;12.104;2023-04-09T09:03:52;98587.59;;;22.72;45.88
65227;BME280;51805;49.012;12.104;2023-04-09T09:06:22;98602.50;;;22.74;45.90
65227;BME280;51805;49.012;12.104;2023-04-09T09:08:59;98610.63;;;22.79;45.89
65227;BME280;51805;49.012;12.104;2023-04-09T09:11:25;98600.88;;;22.73;45.89
65227;BME280;51805;49.012;12.104;2023-04-09T09:13:59;98605.50;;;22.73;46.04
65227;BME280;51805;49.012;12.104;2023-04-09T09:16:24;98605.22;;;22.79;45.94
65227;BME280;51805;49.012;12.104;2023-04-09T09:18:50;98591.38;;;22.71;45.91
65227;BME280;51805;49.012;12.104;2023-04-09T09:21:16;98615.56;;;22.82;45.84
65227;BME280;51805;49.012;12.104;2023-04-09T09:23:42;98605.78;;;22.81;45.99
65227;BME280;51805;49.012;12.104;2023-04-09T09:26:14;98606.88;;;22.80;45.82
65227;BME280;51805;49.012;12.104;2023-04-09T09:28:40;98607.41;;;22.77;46.03
65227;BME280;51805;49.012;12.104;2023-04-09T09:31:09;98602.50;;;22.79;45.67
65227;BME280;51805;49.012;12.104;2023-04-09T09:33:34;98601.97;;;22.77;45.92
65227;BME280;51805;49.012;12.104;2023-04-09T09:36:00;98601.97;;;22.77;45.89
65227;BME280;51805;49.012;12.104;2023-04-09T09:38:25;98597.66;;;22.81;45.95
65227;BME280;51805;49.012;12.104;2023-04-09T09:40:50;98584.59;;;22.73;45.99
65227;BME280;51805;49.012;12.104;2023-04-09T09:43:16;98578.66;;;22.71;46.10
65227;BME280;51805;49.012;12.104;2023-04-09T09:45:41;98595.75;;;22.77;46.06
65227;BME280;51805;49.012;12.104;2023-04-09T09:48:09;98586.25;;;22.74;46.11
65227;BME280;51805;49.012;12.104;2023-04-09T09:50:37;98593.59;;;22.79;46.02
65227;BME280;51805;49.012;12.104;2023-04-09T09:53:07;98603.06;;;22.81;46.07
65227;BME280;51805;49.012;12.104;2023-04-09T09:55:37;98600.88;;;22.78;45.84
65227;BME280;51805;49.012;12.104;2023-04-09T09:58:08;98601.44;;;22.80;45.85
65227;BME280;51805;49.012;12.104;2023-04-09T10:00:36;98604.72;;;22.82;45.98
65227;BME280;51805;49.012;12.104;2023-04-09T10:03:16;98589.22;;;22.78;46.16
65227;BME280;51805;49.012;12.104;2023-04-09T10:05:43;98590.03;;;22.73;46.15
65227;BME280;51805;49.012;12.104;2023-04-09T10:08:09;98597.91;;;22.80;46.38
65227;BME280;51805;49.012;12.104;2023-04-09T10:10:35;98577.00;;;22.70;46.03
65227;BME280;51805;49.012;12.104;2023-04-09T10:13:02;98574.31;;;22.75;46.00
65227;BME280;51805;49.012;12.104;2023-04-09T10:15:30;98590.06;;;22.83;46.13
65227;BME280;51805;49.012;12.104;2023-04-09T10:17:56;98576.47;;;22.73;46.06
65227;BME280;51805;49.012;12.104;2023-04-09T10:20:26;98580.59;;;22.81;46.10
65227;BME280;51805;49.012;12.104;2023-04-09T10:22:53;98589.53;;;22.86;46.13
65227;BME280;51805;49.012;12.104;2023-04-09T10:25:19;98596.59;;;22.87;45.98
65227;BME280;51805;49.012;12.104;2023-04-09T10:27:44;98578.94;;;22.80;45.91
65227;BME280;51805;49.012;12.104;2023-04-09T10:30:09;98573.81;;;22.83;46.03
65227;BME280;51805;49.012;12.104;2023-04-09T10:32:35;98558.09;;;22.80;45.89
65227;BME280;51805;49.012;12.104;2023-04-09T10:35:01;98574.38;;;22.90;45.90
65227;BME280;51805;49.012;12.104;2023-04-09T10:37:27;98570.56;;;22.86;45.86
65227;BME280;51805;49.012;12.104;2023-04-09T10:39:53;98568.41;;;22.83;45.93
65227;BME280;51805;49.012;12.104;2023-04-09T10:42:23;98569.50;;;22.82;45.92
65227;BME280;51805;49.012;12.104;2023-04-09T10:45:09;98580.84;;;22.84;45.95
65227;BME280;51805;49.012;12.104;2023-04-09T10:47:37;98577.88;;;22.86;45.79
65227;BME280;51805;49.012;12.104;2023-04-09T10:50:25;98567.31;;;22.84;45.81
65227;BME280;51805;49.012;12.104;2023-04-09T10:52:53;98545.59;;;22.74;45.90
65227;BME280;51805;49.012;12.104;2023-04-09T10:55:38;98570.59;;;22.91;45.89
65227;BME280;51805;49.012;12.104;2023-04-09T10:58:05;98550.22;;;22.79;45.94
65227;BME280;51805;49.012;12.104;2023-04-09T11:00:31;98556.47;;;22.89;46.11
65227;BME280;51805;49.012;12.104;2023-04-09T11:03:12;98557.31;;;22.90;45.89
65227;BME280;51805;49.012;12.104;2023-04-09T11:06:03;98551.88;;;22.90;45.86
65227;BME280;51805;49.012;12.104;2023-04-09T11:08:32;98552.69;;;22.90;45.92
65227;BME280;51805;49.012;12.104;2023-04-09T11:10:58;98555.94;;;22.92;46.05
65227;BME280;51805;49.012;12.104;2023-04-09T11:13:24;98548.91;;;22.91;45.95
65227;BME280;51805;49.012;12.104;2023-04-09T11:15:49;98550.53;;;22.92;46.02
65227;BME280;51805;49.012;12.104;2023-04-09T11:18:22;98551.06;;;22.89;46.05
65227;BME280;51805;49.012;12.104;2023-04-09T11:20:48;98530.69;;;22.77;46.27
65227;BME280;51805;49.012;12.104;2023-04-09T11:23:15;98548.34;;;22.89;46.13
65227;BME280;51805;49.012;12.104;2023-04-09T11:25:41;98498.94;;;22.57;45.95
65227;BME280;51805;49.012;12.104;2023-04-09T11:28:06;98507.91;;;22.63;46.05
65227;BME280;51805;49.012;12.104;2023-04-09T11:30:32;98521.47;;;22.68;46.09
65227;BME280;51805;49.012;12.104;2023-04-09T11:32:57;98548.91;;;22.91;46.08
65227;BME280;51805;49.012;12.104;2023-04-09T11:35:23;98482.09;;;22.50;45.95
65227;BME280;51805;49.012;12.104;2023-04-09T11:37:49;98495.44;;;22.62;45.89
65227;BME280;51805;49.012;12.104;2023-04-09T11:40:15;98546.72;;;22.93;45.91
65227;BME280;51805;49.012;12.104;2023-04-09T11:42:42;98543.75;;;22.95;45.93
65227;BME280;51805;49.012;12.104;2023-04-09T11:45:09;98526.91;;;22.83;45.92
65227;BME280;51805;49.012;12.104;2023-04-09T11:47:34;98471.25;;;22.50;46.03
65227;BME280;51805;49.012;12.104;2023-04-09T11:50:00;98509.81;;;22.67;46.03
65227;BME280;51805;49.012;12.104;2023-04-09T11:52:26;98491.91;;;22.61;46.05
65227;BME280;51805;49.012;12.104;2023-04-09T11:54:51;98536.41;;;22.90;45.81
65227;BME280;51805;49.012;12.104;2023-04-09T11:57:16;98479.72;;;22.59;46.00
65227;BME280;51805;49.012;12.104;2023-04-09T11:59:42;98515.81;;;22.84;45.84
65227;BME280;51805;49.012;12.104;2023-04-09T12:02:07;98486.22;;;22.63;46.18
65227;BME280;51805;49.012;12.104;2023-04-09T12:04:33;98521.22;;;22.84;46.08
65227;BME280;51805;49.012;12.104;2023-04-09T12:06:58;98534.81;;;22.94;45.99
65227;BME280;51805;49.012;12.104;2023-04-09T12:09:24;98546.47;;;22.95;46.11
65227;BME280;51805;49.012;12.104;2023-04-09T12:11:49;98538.31;;;22.95;45.99
65227;BME280;51805;49.012;12.104;2023-04-09T12:14:15;98539.16;;;22.95;46.04
65227;BME280;51805;49.012;12.104;2023-04-09T12:16:41;98525.88;;;22.94;45.93
65227;BME280;51805;49.012;12.104;2023-04-09T12:19:08;98519.38;;;22.90;45.88
65227;BME280;51805;49.012;12.104;2023-04-09T12:21:53;98534.00;;;22.94;46.00
65227;BME280;51805;49.012;12.104;2023-04-09T12:24:21;98535.34;;;22.96;46.21
65227;BME280;51805;49.012;12.104;2023-04-09T12:26:47;98535.34;;;22.96;46.15
65227;BME280;51805;49.012;12.104;2023-04-09T12:29:14;98531.81;;;22.91;45.71
65227;BME280;51805;49.012;12.104;2023-04-09T12:31:39;98536.97;;;22.92;45.98
65227;BME280;51805;49.012;12.104;2023-04-09T12:34:04;98533.72;;;22.95;46.00
65227;BME280;51805;49.012;12.104;2023-04-09T12:36:30;98519.63;;;22.83;46.11
65227;BME280;51805;49.012;12.104;2023-04-09T12:38:55;98526.94;;;22.88;46.14
65227;BME280;51805;49.012;12.104;2023-04-09T12:41:20;98523.41;;;22.87;46.04
65227;BME280;51805;49.012;12.104;2023-04-09T12:43:45;98523.13;;;22.89;46.11
65227;BME280;51805;49.012;12.104;2023-04-09T12:46:11;98528.84;;;22.92;46.07
65227;BME280;51805;49.012;12.104;2023-04-09T12:48:36;98512.56;;;22.82;46.05